createdAt,value
2018-08-17T00:01:06.629Z,22.33
2018-08-17T00:03:41.916Z,26.43
2018-08-17T00:06:17.516Z,26.37
2018-08-17T00:08:53.073Z,21.53
2018-08-17T00:11:28.828Z,24.37
2018-08-17T00:14:04.399Z,23.83
2018-08-17T00:16:40.124Z,25.87
2018-08-17T00:19:15.877Z,22.20
2018-08-17T00:21:51.628Z,26.10
2018-08-17T00:24:26.961Z,25.30
2018-08-17T00:27:02.522Z,30.63
2018-08-17T00:29:37.996Z,24.70
2018-08-17T00:32:13.620Z,26.73
2018-08-17T00:34:49.044Z,28.00
2018-08-17T00:37:24.809Z,21.67
2018-08-17T00:40:00.201Z,26.33
2018-08-17T00:42:35.708Z,25.97
2018-08-17T00:45:11.000Z,27.67
2018-08-17T00:47:46.796Z,27.93
2018-08-17T00:50:22.273Z,30.40
2018-08-17T00:52:57.793Z,31.90
2018-08-17T00:55:33.039Z,29.40
2018-08-17T00:58:08.481Z,24.60
2018-08-17T01:00:43.672Z,22.90
2018-08-17T01:03:19.268Z,22.50
2018-08-17T01:05:54.484Z,19.23
2018-08-17T01:08:30.116Z,26.73
2018-08-17T01:11:05.582Z,22.80
2018-08-17T01:13:40.945Z,25.57
2018-08-17T01:16:16.803Z,24.83
2018-08-17T01:18:52.451Z,21.57
2018-08-17T01:21:27.851Z,25.90
2018-08-17T01:24:03.336Z,27.40
2018-08-17T01:26:38.584Z,23.87
2018-08-17T01:29:14.120Z,28.40
2018-08-17T01:31:49.344Z,22.90
2018-08-17T01:34:24.954Z,25.75
2018-08-17T01:37:00.373Z,26.23
2018-08-17T01:39:36.009Z,23.43
2018-08-17T01:42:11.500Z,23.67
2018-08-17T01:44:46.927Z,29.63
2018-08-17T01:47:22.324Z,40.47
2018-08-17T01:49:58.045Z,23.80
2018-08-17T01:52:34.048Z,28.07
2018-08-17T01:55:11.036Z,30.65
2018-08-17T01:57:46.318Z,22.37
2018-08-17T02:00:21.829Z,33.98
2018-08-17T02:02:57.179Z,25.45
2018-08-17T02:05:32.825Z,23.55
2018-08-17T02:08:08.027Z,26.93
2018-08-17T02:10:43.573Z,26.30
2018-08-17T02:13:18.954Z,27.65
2018-08-17T02:15:54.506Z,29.60
2018-08-17T02:18:30.365Z,24.63
2018-08-17T02:21:05.897Z,24.30
2018-08-17T02:23:41.436Z,30.57
2018-08-17T02:26:16.809Z,33.00
2018-08-17T02:28:52.288Z,25.57
2018-08-17T02:31:27.777Z,34.43
2018-08-17T02:34:03.224Z,25.80
2018-08-17T02:36:38.641Z,35.57
2018-08-17T02:39:13.842Z,33.35
2018-08-17T02:41:49.459Z,28.45
2018-08-17T02:44:24.930Z,28.65
2018-08-17T02:47:00.453Z,28.23
2018-08-17T02:49:36.105Z,38.70
2018-08-17T02:52:11.959Z,30.97
2018-08-17T02:54:47.558Z,32.13
2018-08-17T02:57:23.158Z,25.15
2018-08-17T02:59:58.613Z,33.50
2018-08-17T03:02:34.149Z,28.32
2018-08-17T03:05:09.662Z,31.27
2018-08-17T03:07:45.137Z,31.10
2018-08-17T03:10:20.356Z,27.90
2018-08-17T03:12:55.832Z,32.73
2018-08-17T03:15:31.253Z,32.90
2018-08-17T03:18:06.817Z,31.75
2018-08-17T03:20:42.141Z,34.15
2018-08-17T03:23:17.560Z,36.30
2018-08-17T03:25:52.844Z,34.92
2018-08-17T03:28:28.388Z,32.28
2018-08-17T03:31:03.645Z,31.75
2018-08-17T03:33:39.168Z,31.20
2018-08-17T03:36:14.504Z,31.07
2018-08-17T03:38:50.092Z,31.82
2018-08-17T03:41:25.513Z,31.77
2018-08-17T03:44:00.899Z,34.75
2018-08-17T03:46:36.230Z,31.95
2018-08-17T03:49:11.885Z,31.12
2018-08-17T03:51:47.242Z,39.60
2018-08-17T03:54:22.858Z,35.28
2018-08-17T03:56:58.097Z,32.38
2018-08-17T03:59:33.652Z,33.85
2018-08-17T04:02:09.109Z,29.00
2018-08-17T04:04:44.660Z,30.72
2018-08-17T04:07:19.998Z,27.52
2018-08-17T04:09:55.525Z,30.72
2018-08-17T04:12:30.864Z,32.30
2018-08-17T04:15:07.755Z,38.70
2018-08-17T04:17:43.169Z,27.48
2018-08-17T04:20:18.844Z,31.55
2018-08-17T04:22:54.340Z,43.58
2018-08-17T04:25:30.046Z,38.28
2018-08-17T04:28:05.528Z,34.98
2018-08-17T04:30:40.948Z,27.73
2018-08-17T04:33:16.304Z,32.05
2018-08-17T04:35:51.928Z,30.77
2018-08-17T04:38:27.388Z,34.70
2018-08-17T04:41:02.920Z,33.13
2018-08-17T04:43:38.391Z,27.70
2018-08-17T04:46:14.023Z,29.57
2018-08-17T04:48:49.748Z,34.33
2018-08-17T04:51:25.316Z,40.93
2018-08-17T04:54:00.645Z,29.40
2018-08-17T04:56:36.096Z,24.93
2018-08-17T04:59:11.324Z,22.50
2018-08-17T05:01:46.788Z,24.43
2018-08-17T05:04:22.289Z,29.90
2018-08-17T05:06:57.780Z,35.83
2018-08-17T05:09:32.988Z,25.90
2018-08-17T05:12:12.260Z,32.53
2018-08-17T05:14:47.699Z,33.13
2018-08-17T05:17:23.220Z,31.20
2018-08-17T05:19:58.430Z,23.00
2018-08-17T05:22:33.832Z,41.57
2018-08-17T05:25:09.173Z,40.00
2018-08-17T05:27:44.516Z,28.27
2018-08-17T05:30:19.773Z,29.17
2018-08-17T05:32:55.369Z,30.47
2018-08-17T05:35:30.588Z,27.00
2018-08-17T05:38:06.193Z,36.40
2018-08-17T05:40:41.682Z,31.53
2018-08-17T05:43:17.243Z,24.13
2018-08-17T05:45:52.712Z,40.40
2018-08-17T05:48:28.490Z,31.60
2018-08-17T05:51:03.924Z,34.30
2018-08-17T05:53:39.481Z,34.20
2018-08-17T05:56:14.829Z,38.23
2018-08-17T05:58:50.784Z,33.60
2018-08-17T06:01:26.082Z,43.23
2018-08-17T06:04:01.568Z,33.20
2018-08-17T06:06:36.885Z,30.50
2018-08-17T06:09:12.358Z,29.00
2018-08-17T06:11:47.838Z,38.53
2018-08-17T06:14:23.685Z,41.77
2018-08-17T06:16:59.141Z,29.27
2018-08-17T06:19:34.760Z,34.53
2018-08-17T06:22:15.398Z,30.73
2018-08-17T06:24:51.773Z,36.23
2018-08-17T06:27:27.169Z,29.90
2018-08-17T06:30:02.577Z,34.30
2018-08-17T06:32:37.992Z,29.13
2018-08-17T06:35:14.346Z,27.00
2018-08-17T06:37:49.755Z,30.50
2018-08-17T06:40:25.174Z,32.30
2018-08-17T06:43:00.637Z,28.80
2018-08-17T06:45:36.272Z,27.13
2018-08-17T06:48:12.577Z,24.73
2018-08-17T06:50:48.099Z,25.50
2018-08-17T06:53:23.428Z,18.60
2018-08-17T06:55:58.885Z,20.13
2018-08-17T06:58:34.350Z,24.17
2018-08-17T07:01:09.869Z,28.00
2018-08-17T07:03:45.192Z,24.20
2018-08-17T07:06:20.766Z,16.90
2018-08-17T07:08:56.292Z,23.20
2018-08-17T07:11:31.713Z,21.47
2018-08-17T07:14:08.085Z,23.93
2018-08-17T07:16:43.627Z,18.83
2018-08-17T07:19:19.069Z,19.17
2018-08-17T07:21:54.456Z,18.67
2018-08-17T07:24:29.680Z,25.37
2018-08-17T07:27:05.137Z,22.20
2018-08-17T07:29:40.504Z,21.63
2018-08-17T07:32:16.234Z,15.73
2018-08-17T07:34:51.758Z,21.13
2018-08-17T07:37:27.424Z,24.00
2018-08-17T07:40:02.869Z,15.27
2018-08-17T07:42:38.418Z,17.90
2018-08-17T07:45:13.744Z,11.27
2018-08-17T07:47:49.325Z,15.67
2018-08-17T07:50:24.977Z,8.57
2018-08-17T07:53:00.501Z,11.77
2018-08-17T07:55:35.737Z,18.27
2018-08-17T07:58:11.298Z,17.47
2018-08-17T08:00:46.604Z,13.23
2018-08-17T08:03:22.185Z,8.50
2018-08-17T08:05:57.537Z,9.53
2018-08-17T08:08:32.972Z,9.10
2018-08-17T08:11:08.735Z,6.33
2018-08-17T08:13:44.270Z,5.93
2018-08-17T08:16:19.597Z,13.47
2018-08-17T08:18:55.166Z,22.70
2018-08-17T08:21:30.656Z,7.63
2018-08-17T08:24:06.160Z,9.00
2018-08-17T08:26:41.534Z,13.30
2018-08-17T08:29:17.353Z,9.00
2018-08-17T08:31:52.644Z,9.80
2018-08-17T08:34:28.248Z,6.70
2018-08-17T08:37:03.744Z,13.20
2018-08-17T08:39:39.246Z,10.53
2018-08-17T08:42:15.277Z,8.33
2018-08-17T08:44:50.866Z,7.50
2018-08-17T08:47:26.121Z,15.73
2018-08-17T08:50:01.958Z,12.57
2018-08-17T08:52:37.971Z,7.97
2018-08-17T08:55:13.631Z,10.53
2018-08-17T08:57:48.982Z,6.70
2018-08-17T09:00:24.814Z,5.60
2018-08-17T09:03:00.379Z,5.03
2018-08-17T09:05:36.080Z,9.70
2018-08-17T09:08:11.443Z,7.33
2018-08-17T09:10:47.009Z,4.70
2018-08-17T09:13:22.312Z,4.10
2018-08-17T09:15:57.796Z,5.47
2018-08-17T09:18:33.533Z,4.63
2018-08-17T09:21:08.893Z,4.50
2018-08-17T09:23:44.397Z,15.40
2018-08-17T09:26:20.093Z,5.63
2018-08-17T09:28:55.289Z,6.30
2018-08-17T09:31:30.998Z,13.07
2018-08-17T09:34:06.473Z,8.13
2018-08-17T09:36:41.981Z,12.00
2018-08-17T09:39:17.483Z,4.27
2018-08-17T09:41:52.996Z,6.10
2018-08-17T09:44:28.425Z,3.73
2018-08-17T09:47:04.176Z,11.47
2018-08-17T09:49:39.701Z,9.57
2018-08-17T09:52:15.334Z,7.50
2018-08-17T09:54:50.696Z,10.40
2018-08-17T09:57:26.204Z,13.73
2018-08-17T10:00:01.778Z,9.20
2018-08-17T10:02:42.673Z,12.90
2018-08-17T10:05:23.421Z,5.87
2018-08-17T10:08:04.416Z,7.37
2018-08-17T10:10:39.797Z,10.27
2018-08-17T10:13:15.412Z,7.87
2018-08-17T10:15:50.825Z,10.03
2018-08-17T10:18:31.008Z,8.20
2018-08-17T10:21:06.363Z,6.40
2018-08-17T10:23:41.798Z,5.90
2018-08-17T10:26:17.345Z,8.53
2018-08-17T10:28:52.698Z,11.00
2018-08-17T10:31:27.970Z,5.90
2018-08-17T10:34:03.665Z,22.40
2018-08-17T10:36:39.133Z,6.60
2018-08-17T10:39:14.810Z,8.80
2018-08-17T10:41:50.170Z,10.03
2018-08-17T10:44:25.675Z,9.63
2018-08-17T10:47:06.678Z,17.10
2018-08-17T10:49:43.109Z,8.43
2018-08-17T10:52:18.644Z,11.03
2018-08-17T10:54:54.208Z,11.33
2018-08-17T10:57:29.727Z,10.33
2018-08-17T11:00:05.614Z,15.63
2018-08-17T11:02:41.546Z,34.63
2018-08-17T11:05:17.924Z,22.73
2018-08-17T11:07:53.347Z,12.23
2018-08-17T11:10:29.344Z,6.90
2018-08-17T11:13:07.672Z,13.80
2018-08-17T11:15:43.207Z,24.17
2018-08-17T11:18:18.993Z,9.63
2018-08-17T11:20:55.631Z,4.33
2018-08-17T11:23:31.176Z,7.80
2018-08-17T11:26:07.020Z,16.23
2018-08-17T11:28:42.344Z,7.40
2018-08-17T11:31:17.912Z,6.70
2018-08-17T11:33:53.340Z,7.70
2018-08-17T11:36:29.119Z,8.17
2018-08-17T11:39:05.666Z,8.03
2018-08-17T11:41:41.238Z,6.10
2018-08-17T11:44:16.749Z,5.83
2018-08-17T11:46:52.422Z,5.27
2018-08-17T11:49:28.321Z,10.53
2018-08-17T11:52:03.930Z,6.00
2018-08-17T11:54:39.187Z,5.80
2018-08-17T11:57:14.616Z,5.33
2018-08-17T11:59:55.133Z,6.47
2018-08-17T12:02:30.729Z,7.60
2018-08-17T12:05:06.488Z,10.17
2018-08-17T12:07:43.052Z,6.73
2018-08-17T12:10:18.305Z,6.30
2018-08-17T12:12:53.953Z,6.57
2018-08-17T12:15:29.521Z,6.80
2018-08-17T12:18:05.579Z,10.23
2018-08-17T12:20:40.840Z,14.80
2018-08-17T12:23:16.236Z,11.90
2018-08-17T12:25:56.267Z,12.03
2018-08-17T12:28:32.249Z,5.50
2018-08-17T12:31:07.648Z,8.03
2018-08-17T12:33:43.142Z,6.20
2018-08-17T12:36:19.841Z,4.97
2018-08-17T12:38:55.456Z,4.80
2018-08-17T12:41:32.749Z,8.30
2018-08-17T12:44:08.193Z,4.30
2018-08-17T12:46:43.620Z,3.90
2018-08-17T12:49:19.489Z,6.73
2018-08-17T12:51:54.945Z,7.23
2018-08-17T12:54:32.564Z,4.70
2018-08-17T12:57:07.949Z,4.97
2018-08-17T12:59:43.420Z,4.97
2018-08-17T13:02:18.867Z,4.30
2018-08-17T13:04:54.530Z,9.23
2018-08-17T13:07:30.072Z,6.73
2018-08-17T13:10:05.821Z,6.60
2018-08-17T13:12:41.249Z,7.30
2018-08-17T13:15:16.721Z,10.40
2018-08-17T13:17:52.014Z,7.27
2018-08-17T13:20:27.606Z,6.53
2018-08-17T13:23:03.239Z,6.27
2018-08-17T13:25:39.115Z,6.07
2018-08-17T13:28:14.336Z,4.43
2018-08-17T13:30:49.788Z,6.23
2018-08-17T13:33:25.174Z,4.83
2018-08-17T13:36:01.122Z,9.10
2018-08-17T13:38:36.560Z,7.27
2018-08-17T13:41:12.191Z,9.73
2018-08-17T13:43:47.450Z,6.50
2018-08-17T13:46:23.584Z,8.60
2018-08-17T13:48:59.148Z,6.63
2018-08-17T13:51:34.789Z,6.77
2018-08-17T13:54:10.225Z,7.90
2018-08-17T13:56:45.886Z,7.47
2018-08-17T13:59:21.233Z,8.73
2018-08-17T14:01:56.770Z,7.90
2018-08-17T14:04:32.281Z,13.60
2018-08-17T14:07:07.856Z,9.90
2018-08-17T14:09:43.430Z,9.13
2018-08-17T14:12:18.961Z,9.13
2018-08-17T14:14:54.441Z,15.90
2018-08-17T14:17:30.260Z,9.53
2018-08-17T14:20:09.729Z,7.67
2018-08-17T14:22:45.379Z,8.73
2018-08-17T14:25:20.849Z,8.63
2018-08-17T14:27:56.341Z,8.80
2018-08-17T14:30:31.814Z,8.30
2018-08-17T14:33:07.332Z,14.30
2018-08-17T14:35:42.760Z,8.13
2018-08-17T14:38:31.656Z,8.30
2018-08-17T14:41:06.948Z,9.07
2018-08-17T14:43:42.330Z,11.87
2018-08-17T14:46:17.797Z,10.43
2018-08-17T14:48:53.550Z,13.40
2018-08-17T14:51:29.124Z,11.10
2018-08-17T14:54:05.134Z,12.70
2018-08-17T14:56:40.400Z,11.60
2018-08-17T14:59:16.443Z,11.83
2018-08-17T15:01:51.764Z,12.43
2018-08-17T15:04:27.322Z,12.93
2018-08-17T15:07:02.733Z,10.03
2018-08-17T15:09:38.218Z,8.93
2018-08-17T15:12:13.416Z,9.17
2018-08-17T15:14:49.001Z,10.07
2018-08-17T15:17:24.224Z,15.63
2018-08-17T15:19:59.884Z,11.50
2018-08-17T15:22:35.064Z,7.37
2018-08-17T15:25:10.673Z,8.20
2018-08-17T15:27:46.020Z,10.37
2018-08-17T15:30:21.778Z,16.83
2018-08-17T15:32:57.152Z,9.77
2018-08-17T15:35:32.577Z,11.40
2018-08-17T15:38:07.977Z,15.83
2018-08-17T15:40:43.605Z,8.63
2018-08-17T15:43:19.811Z,10.10
2018-08-17T15:45:55.381Z,20.10
2018-08-17T15:48:40.968Z,13.10
2018-08-17T15:51:16.950Z,17.87
2018-08-17T15:53:52.436Z,12.17
2018-08-17T15:56:27.916Z,12.40
2018-08-17T15:59:03.377Z,6.43
2018-08-17T16:01:39.098Z,9.30
2018-08-17T16:04:14.596Z,10.53
2018-08-17T16:06:49.997Z,11.50
2018-08-17T16:09:25.201Z,10.40
2018-08-17T16:12:00.886Z,10.60
2018-08-17T16:14:36.043Z,8.50
2018-08-17T16:17:11.594Z,10.93
2018-08-17T16:19:46.741Z,7.83
2018-08-17T16:22:22.252Z,12.47
2018-08-17T16:24:57.488Z,12.83
2018-08-17T16:27:33.073Z,9.17
2018-08-17T16:30:11.245Z,7.07
2018-08-17T16:32:46.907Z,7.20
2018-08-17T16:35:22.090Z,12.20
2018-08-17T16:37:57.815Z,11.87
2018-08-17T16:40:37.360Z,10.07
2018-08-17T16:43:13.182Z,8.00
2018-08-17T16:45:48.722Z,10.20
2018-08-17T16:48:24.288Z,8.20
2018-08-17T16:50:59.725Z,6.57
2018-08-17T16:53:35.379Z,8.83
2018-08-17T16:56:10.889Z,8.17
2018-08-17T16:58:46.421Z,7.30
2018-08-17T17:01:21.740Z,13.10
2018-08-17T17:03:57.283Z,17.40
2018-08-17T17:06:32.674Z,7.27
2018-08-17T17:09:08.929Z,12.30
2018-08-17T17:11:44.245Z,7.57
2018-08-17T17:14:19.751Z,7.73
2018-08-17T17:16:55.250Z,11.03
2018-08-17T17:19:30.845Z,8.87
2018-08-17T17:22:06.337Z,5.53
2018-08-17T17:24:41.857Z,12.50
2018-08-17T17:27:20.343Z,7.33
2018-08-17T17:29:56.004Z,9.00
2018-08-17T17:32:31.489Z,7.80
2018-08-17T17:35:07.105Z,5.43
2018-08-17T17:37:42.688Z,4.20
2018-08-17T17:40:18.605Z,5.33
2018-08-17T17:42:53.836Z,6.17
2018-08-17T17:45:30.114Z,7.37
2018-08-17T17:48:05.781Z,8.47
2018-08-17T17:50:41.441Z,8.87
2018-08-17T17:53:16.860Z,6.07
2018-08-17T17:55:52.407Z,8.10
2018-08-17T17:58:27.719Z,7.10
2018-08-17T18:01:09.653Z,9.77
2018-08-17T18:03:46.554Z,7.87
2018-08-17T18:06:22.202Z,4.80
2018-08-17T18:09:00.779Z,9.03
2018-08-17T18:11:36.351Z,5.83
2018-08-17T18:14:11.805Z,6.20
2018-08-17T18:16:47.238Z,11.20
2018-08-17T18:19:22.964Z,8.60
2018-08-17T18:21:58.433Z,7.50
2018-08-17T18:24:33.864Z,4.17
2018-08-17T18:27:09.865Z,3.90
2018-08-17T18:29:45.322Z,5.27
2018-08-17T18:32:20.820Z,7.47
2018-08-17T18:34:56.305Z,5.63
2018-08-17T18:37:32.031Z,21.43
2018-08-17T18:40:09.382Z,9.33
2018-08-17T18:42:44.889Z,18.73
2018-08-17T18:45:20.272Z,11.23
2018-08-17T18:47:55.750Z,10.20
2018-08-17T18:50:31.398Z,12.13
2018-08-17T18:53:06.947Z,13.90
2018-08-17T18:55:42.336Z,15.63
2018-08-17T18:58:18.045Z,15.57
2018-08-17T19:00:53.322Z,9.33
2018-08-17T19:03:29.035Z,4.97
2018-08-17T19:06:04.305Z,20.10
2018-08-17T19:08:40.332Z,15.63
2018-08-17T19:11:15.514Z,12.00
2018-08-17T19:13:51.128Z,5.03
2018-08-17T19:16:26.692Z,28.20
2018-08-17T19:19:02.320Z,7.43
2018-08-17T19:21:37.548Z,9.90
2018-08-17T19:24:13.212Z,13.45
2018-08-17T19:26:48.588Z,9.03
2018-08-17T19:29:24.104Z,8.07
2018-08-17T19:32:01.781Z,22.27
2018-08-17T19:34:37.355Z,23.47
2018-08-17T19:37:12.852Z,9.55
2018-08-17T19:39:48.657Z,7.40
2018-08-17T19:42:23.861Z,12.67
2018-08-17T19:44:59.712Z,11.33
2018-08-17T19:47:35.124Z,18.10
2018-08-17T19:50:11.226Z,11.40
2018-08-17T19:52:46.692Z,30.32
2018-08-17T19:55:22.164Z,16.50
2018-08-17T19:57:57.514Z,9.63
2018-08-17T20:00:33.033Z,17.55
2018-08-17T20:03:08.453Z,15.03
2018-08-17T20:05:44.030Z,11.85
2018-08-17T20:08:19.288Z,12.47
2018-08-17T20:10:54.830Z,30.50
2018-08-17T20:13:30.169Z,30.85
2018-08-17T20:16:15.722Z,32.90
2018-08-17T20:18:51.261Z,15.70
2018-08-17T20:21:26.917Z,25.00
2018-08-17T20:24:02.405Z,18.07
2018-08-17T20:26:38.344Z,20.77
2018-08-17T20:29:13.467Z,18.87
2018-08-17T20:31:49.026Z,18.52
2018-08-17T20:34:24.393Z,20.15
2018-08-17T20:37:00.220Z,13.22
2018-08-17T20:39:37.696Z,12.15
2018-08-17T20:42:13.364Z,21.65
2018-08-17T20:44:48.686Z,11.73
2018-08-17T20:47:24.175Z,11.83
2018-08-17T20:49:59.909Z,13.30
2018-08-17T20:52:36.474Z,15.18
2018-08-17T20:55:11.829Z,11.65
2018-08-17T20:57:50.832Z,15.72
2018-08-17T21:00:28.123Z,20.52
2018-08-17T21:03:03.577Z,13.03
2018-08-17T21:05:38.876Z,14.10
2018-08-17T21:08:14.476Z,11.48
2018-08-17T21:10:49.676Z,13.95
2018-08-17T21:13:25.258Z,12.65
2018-08-17T21:16:00.716Z,15.72
2018-08-17T21:18:36.240Z,15.75
2018-08-17T21:21:11.724Z,14.13
2018-08-17T21:23:47.344Z,21.40
2018-08-17T21:26:22.558Z,12.43
2018-08-17T21:28:58.196Z,22.37
2018-08-17T21:31:33.684Z,19.05
2018-08-17T21:34:09.152Z,18.50
2018-08-17T21:36:44.629Z,12.70
2018-08-17T21:39:20.424Z,14.45
2018-08-17T21:41:55.868Z,12.18
2018-08-17T21:44:31.212Z,18.23
2018-08-17T21:47:07.017Z,14.10
2018-08-17T21:49:43.366Z,12.03
2018-08-17T21:52:23.970Z,14.45
2018-08-17T21:54:59.545Z,14.50
2018-08-17T21:57:35.106Z,15.45
2018-08-17T22:00:33.465Z,12.53
2018-08-17T22:03:36.644Z,21.00
2018-08-17T22:06:12.248Z,18.98
2018-08-17T22:08:47.625Z,17.50
2018-08-17T22:11:35.096Z,27.52
2018-08-17T22:14:10.420Z,16.55
2018-08-17T22:16:46.089Z,19.17
2018-08-17T22:19:37.816Z,14.13
2018-08-17T22:22:13.437Z,18.85
2018-08-17T22:24:52.373Z,28.90
2018-08-17T22:27:28.957Z,20.32
2018-08-17T22:30:05.251Z,16.30
2018-08-17T22:32:40.798Z,25.30
2018-08-17T22:35:16.589Z,20.32
2018-08-17T22:37:52.187Z,18.90
2018-08-17T22:40:27.981Z,19.95
2018-08-17T22:43:03.585Z,35.33
2018-08-17T22:45:38.937Z,25.57
2018-08-17T22:48:14.321Z,19.55
2018-08-17T22:50:49.809Z,20.65
2018-08-17T22:53:25.469Z,25.05
2018-08-17T22:56:00.865Z,25.10
2018-08-17T22:58:41.607Z,13.53
2018-08-17T23:01:18.892Z,17.65
2018-08-17T23:04:01.168Z,15.53
2018-08-17T23:06:36.560Z,15.90
2018-08-17T23:09:11.997Z,18.42
2018-08-17T23:11:47.405Z,12.73
2018-08-17T23:14:24.205Z,11.95
2018-08-17T23:16:59.490Z,17.32
2018-08-17T23:19:35.072Z,13.20
2018-08-17T23:22:10.317Z,15.05
2018-08-17T23:24:45.828Z,13.45
2018-08-17T23:27:21.090Z,15.58
2018-08-17T23:29:56.533Z,12.43
2018-08-17T23:32:31.825Z,16.10
2018-08-17T23:35:07.756Z,9.10
2018-08-17T23:37:43.190Z,17.37
2018-08-17T23:40:18.936Z,12.55
2018-08-17T23:42:54.393Z,16.85
2018-08-17T23:45:30.160Z,13.88
2018-08-17T23:48:05.586Z,12.40
2018-08-17T23:50:41.122Z,12.40
2018-08-17T23:53:16.639Z,11.63
2018-08-17T23:55:52.321Z,13.80
2018-08-17T23:58:27.596Z,11.65
